Time;durP1;ratioP1;P1;durP2;ratioP2;P2;SDS_P1;SDS_P2;PMS_P1;PMS_P2;Temp;Humidity;BMP_temperature;BMP_pressure;BME280_temperature;BME280_humidity;BME280_pressure;Samples;Min_cycle;Max_cycle;Signal;HPM_P1;HPM_P2
2022/06/24 00:02:01;;;;;;;4.32;2.37;;;;;;;18.43;52.62;99127.13;4349706;32;34704;-87
2022/06/24 00:04:30;;;;;;;4.62;2.60;;;;;;;18.30;52.92;99121.56;4348417;33;34515;-86
2022/06/24 00:06:58;;;;;;;6.65;2.47;;;;;;;18.19;52.96;99129.09;4347609;33;33916;-86
2022/06/24 00:09:30;;;;;;;8.35;2.87;;;;;;;18.08;52.69;99124.31;4348177;33;36044;-87
2022/06/24 00:12:06;;;;;;;4.12;2.45;;;;;;;18.16;53.49;99122.19;4334713;33;32981;-87
2022/06/24 00:14:35;;;;;;;;;;;;;;;18.15;53.18;99124.91;4348833;33;33536;-85
2022/06/24 00:17:08;;;;;;;4.50;2.20;;;;;;;18.23;52.64;99132.44;4356414;32;34327;-76
2022/06/24 00:19:52;;;;;;;6.90;2.70;;;;;;;17.91;53.57;99133.00;4363088;32;34949;-76
2022/06/24 00:22:21;;;;;;;10.75;2.72;;;;;;;18.18;52.44;99128.25;4347304;32;34495;-76
2022/06/24 00:24:49;;;;;;;7.62;2.60;;;;;;;17.92;51.13;99131.19;4349964;32;34585;-77
2022/06/24 00:27:22;;;;;;;5.82;2.87;;;;;;;18.06;51.76;99133.22;4348365;32;33360;-77
2022/06/24 00:29:51;;;;;;;4.68;2.70;;;;;;;18.48;50.21;99132.19;4348793;32;35879;-77
2022/06/24 00:32:32;;;;;;;6.15;2.97;;;;;;;18.64;49.41;99143.72;4347716;32;35155;-85
2022/06/24 00:35:06;;;;;;;3.17;2.17;;;;;;;18.81;48.01;99139.44;4337563;32;32167;-76
2022/06/24 00:37:35;;;;;;;5.90;2.67;;;;;;;18.97;48.91;99131.66;4336011;32;33116;-76
2022/06/24 00:40:23;;;;;;;4.60;2.50;;;;;;;19.29;47.56;99132.72;4348116;32;33492;-77
2022/06/24 00:42:51;;;;;;;4.78;2.70;;;;;;;19.08;46.68;99132.00;4361433;32;35155;-80
2022/06/24 00:45:48;;;;;;;7.57;2.37;;;;;;;19.28;47.02;99131.00;4362770;32;34469;-77
2022/06/24 00:48:19;;;;;;;4.35;2.42;;;;;;;19.50;45.51;99125.50;4350990;32;33973;-86
2022/06/24 00:50:47;;;;;;;4.60;2.67;;;;;;;19.11;46.67;99123.91;4354070;32;35043;-86
2022/06/24 00:53:15;;;;;;;9.48;2.83;;;;;;;19.63;46.78;99120.47;4320015;33;34487;-76
2022/06/24 00:55:45;;;;;;;5.03;2.70;;;;;;;19.58;46.14;99122.47;4331865;33;34459;-84
2022/06/24 00:58:15;;;;;;;3.78;2.45;;;;;;;19.73;46.28;99116.41;4334361;33;33891;-76
2022/06/24 01:00:46;;;;;;;5.43;2.67;;;;;;;19.31;45.04;99117.66;4347606;33;35051;-77
2022/06/24 01:03:15;;;;;;;6.32;2.83;;;;;;;19.17;46.09;99120.16;4362307;32;35346;-77
2022/06/24 01:05:43;;;;;;;8.30;2.50;;;;;;;19.40;45.11;99116.34;4347716;32;33709;-77
2022/06/24 01:08:13;;;;;;;4.15;2.60;;;;;;;19.43;44.77;99113.53;4360804;32;34260;-77
2022/06/24 01:10:41;;;;;;;4.37;2.47;;;;;;;19.76;45.00;99116.25;4349229;32;34290;-77
2022/06/24 01:13:10;;;;;;;4.55;2.28;;;;;;;19.71;44.39;99110.31;4360841;32;35116;-77
2022/06/24 01:15:38;;;;;;;4.95;2.50;;;;;;;19.99;44.15;99108.91;4362421;32;34397;-77
2022/06/24 01:18:07;;;;;;;4.20;2.90;;;;;;;20.04;44.01;99109.53;4361130;32;33780;-76
2022/06/24 01:20:35;;;;;;;5.82;2.87;;;;;;;19.96;44.40;99111.72;4360998;32;35116;-77
2022/06/24 01:23:04;;;;;;;6.28;2.37;;;;;;;19.79;44.03;99116.09;4346477;32;34432;-77
2022/06/24 01:25:32;;;;;;;3.37;2.70;;;;;;;19.98;44.00;99109.87;4362286;32;33652;-77
2022/06/24 01:27:59;;;;;;;4.12;2.50;;;;;;;20.19;43.15;99111.34;4360561;32;34708;-78
2022/06/24 01:30:28;;;;;;;3.58;2.33;;;;;;;20.35;43.26;99113.19;4348826;32;35080;-77
2022/06/24 01:32:56;;;;;;;3.87;2.25;;;;;;;20.20;44.08;99105.12;4360987;32;34522;-77
2022/06/24 01:35:24;;;;;;;4.50;2.42;;;;;;;20.12;44.56;99103.81;4364309;32;33601;-77
2022/06/24 01:37:51;;;;;;;7.37;3.15;;;;;;;20.43;43.35;99105.66;4362672;32;33908;-77
2022/06/24 01:40:19;;;;;;;3.45;2.40;;;;;;;20.19;42.81;99114.00;4361035;32;34964;-77
2022/06/24 01:42:47;;;;;;;4.85;2.75;;;;;;;20.46;43.90;99105.50;4362716;32;34876;-76
2022/06/24 01:45:15;;;;;;;4.95;2.40;;;;;;;20.41;42.90;99102.25;4364258;32;33638;-77
2022/06/24 01:47:43;;;;;;;3.22;2.10;;;;;;;20.77;42.99;99094.09;4349439;32;34768;-77
2022/06/24 01:50:11;;;;;;;9.80;2.55;;;;;;;20.77;42.89;99098.50;4364185;32;35905;-77
2022/06/24 01:52:39;;;;;;;6.03;2.60;;;;;;;20.38;44.35;99097.12;4352241;32;34490;-77
2022/06/24 01:55:07;;;;;;;5.82;3.17;;;;;;;20.33;43.87;99094.75;4349274;33;33663;-77
2022/06/24 01:57:35;;;;;;;4.85;2.83;;;;;;;19.60;46.32;99095.03;4357420;32;33855;-77
2022/06/24 02:00:03;;;;;;;4.87;2.78;;;;;;;19.56;45.42;99095.28;4363201;32;35096;-85
2022/06/24 02:02:33;;;;;;;5.82;2.30;;;;;;;19.70;45.54;99090.16;4356548;32;33912;-76
2022/06/24 02:05:02;;;;;;;6.28;2.95;;;;;;;19.79;45.15;99089.69;4364169;32;33813;-77
2022/06/24 02:07:30;;;;;;;13.57;2.90;;;;;;;19.49;44.78;99092.94;4357473;32;34733;-77
2022/06/24 02:15:51;;;;;;;3.83;2.60;;;;;;;19.58;45.08;99096.06;4299734;33;34587;-77
2022/06/24 02:18:19;;;;;;;7.40;2.85;;;;;;;19.72;44.85;99090.91;4289586;33;34761;-76
2022/06/24 02:20:47;;;;;;;4.25;2.42;;;;;;;19.76;43.99;99099.56;4331822;32;35110;-77
2022/06/24 02:23:16;;;;;;;6.80;2.53;;;;;;;19.85;44.18;99089.38;4361461;32;35244;-84
2022/06/24 02:25:44;;;;;;;5.85;2.25;;;;;;;19.75;44.08;99090.78;4362454;32;33704;-86
2022/06/24 02:28:12;;;;;;;6.40;2.40;;;;;;;20.03;43.55;99092.81;4361083;32;34122;-77
2022/06/24 02:30:42;;;;;;;5.45;2.60;;;;;;;20.18;43.33;99100.84;4362844;32;35937;-76
2022/06/24 02:33:10;;;;;;;4.07;2.40;;;;;;;19.94;43.46;99095.09;4362089;32;35114;-76
2022/06/24 02:35:39;;;;;;;6.03;2.60;;;;;;;20.13;43.42;99093.16;4363871;32;33752;-77
2022/06/24 02:38:07;;;;;;;4.07;2.20;;;;;;;19.97;43.53;99100.22;4361157;32;33828;-77
2022/06/24 02:40:48;;;;;;;4.47;2.42;;;;;;;20.44;42.84;99100.28;4361085;32;35926;-79
2022/06/24 02:43:24;;;;;;;4.15;2.00;;;;;;;20.60;42.73;99102.94;4362309;32;34627;-77
2022/06/24 02:45:53;;;;;;;;;;;;;;;20.23;42.70;99107.59;4362639;32;33682;-86
2022/06/24 02:48:22;;;;;;;5.05;2.25;;;;;;;20.39;42.50;99099.69;4362285;32;34249;-82
2022/06/24 02:50:54;;;;;;;3.17;2.05;;;;;;;20.19;43.07;99098.12;4363599;32;35064;-77
2022/06/24 02:53:23;;;;;;;3.65;2.50;;;;;;;20.48;42.60;99098.31;4349182;32;35283;-77
2022/06/24 02:55:53;;;;;;;5.82;2.58;;;;;;;20.09;43.47;99102.22;4347633;33;34472;-84
2022/06/24 02:58:21;;;;;;;7.10;2.47;;;;;;;20.03;43.61;99108.69;4362172;32;33990;-77
2022/06/24 03:00:50;;;;;;;5.00;2.03;;;;;;;20.25;43.52;99108.38;4363693;32;35914;-77
2022/06/24 03:03:20;;;;;;;3.28;2.12;;;;;;;19.88;44.46;99102.41;4361331;32;33987;-77
2022/06/24 03:05:48;;;;;;;5.32;2.33;;;;;;;20.10;44.12;99109.22;4363481;32;34483;-77
2022/06/24 03:08:18;;;;;;;9.77;2.35;;;;;;;20.10;43.60;99109.22;4348849;32;33977;-77
2022/06/24 03:10:46;;;;;;;6.87;2.30;;;;;;;19.83;44.19;99117.66;4350206;32;35019;-77
2022/06/24 03:13:13;;;;;;;3.15;2.20;;;;;;;20.12;43.78;99107.34;4336425;32;34470;-77
2022/06/24 03:15:43;;;;;;;6.43;2.42;;;;;;;19.98;44.34;99109.87;4362070;32;34507;-80
2022/06/24 03:18:11;;;;;;;4.68;2.03;;;;;;;19.81;44.73;99113.38;4350995;32;34874;-87
2022/06/24 03:20:39;;;;;;;2.80;2.15;;;;;;;19.84;44.12;99107.94;4348566;33;35894;-86
2022/06/24 03:23:14;;;;;;;3.53;2.47;;;;;;;20.04;44.16;99112.16;4336030;33;34692;-87
2022/06/24 03:25:42;;;;;;;8.50;2.17;;;;;;;20.20;44.04;99113.03;4335558;33;33634;-86
2022/06/24 03:28:11;;;;;;;4.32;2.20;;;;;;;20.53;42.99;99117.44;4335371;33;34665;-87
2022/06/24 03:30:39;;;;;;;7.35;2.40;;;;;;;20.46;43.16;99113.44;4335079;33;35123;-87
2022/06/24 03:33:07;;;;;;;4.28;2.20;;;;;;;20.50;43.20;99109.66;4317087;33;32873;-80
2022/06/24 03:35:35;;;;;;;4.53;2.40;;;;;;;20.05;44.65;99112.09;4348657;33;34568;-77
2022/06/24 03:38:03;;;;;;;5.07;3.10;;;;;;;20.49;44.37;99113.25;4356619;32;33669;-77
2022/06/24 03:40:31;;;;;;;4.25;2.00;;;;;;;20.69;42.64;99117.47;4350127;32;35031;-77
2022/06/24 03:42:59;;;;;;;4.55;2.67;;;;;;;20.69;43.78;99113.97;4347182;32;35208;-78
2022/06/24 03:45:27;;;;;;;3.28;2.15;;;;;;;20.77;43.54;99115.25;4362203;32;34507;-77
2022/06/24 03:47:55;;;;;;;4.60;2.12;;;;;;;21.33;42.08;99118.22;4361985;32;33998;-76
2022/06/24 03:50:23;;;;;;;3.35;2.37;;;;;;;20.64;44.86;99125.66;4349023;32;34873;-76
2022/06/24 03:52:51;;;;;;;3.97;2.30;;;;;;;20.92;42.86;99124.09;4354954;32;34491;-77
2022/06/24 03:55:19;;;;;;;4.93;2.00;;;;;;;21.21;42.95;99119.81;4363386;32;33809;-77
2022/06/24 03:57:47;;;;;;;5.03;2.40;;;;;;;21.25;43.64;99120.47;4360498;32;33986;-77
2022/06/24 04:00:15;;;;;;;3.50;2.10;;;;;;;21.19;42.20;99118.16;4362092;32;35145;-80
2022/06/24 04:02:44;;;;;;;8.30;2.40;;;;;;;21.32;42.44;99120.97;4335154;33;35284;-76
2022/06/24 04:05:16;;;;;;;7.30;2.40;;;;;;;21.61;43.23;99127.22;4347777;33;34409;-75
2022/06/24 04:07:44;;;;;;;3.92;2.42;;;;;;;21.59;41.87;99129.09;4339684;32;34078;-75
2022/06/24 04:10:12;;;;;;;4.75;2.35;;;;;;;21.68;42.28;99133.84;4322739;32;32952;-76
2022/06/24 04:12:40;;;;;;;6.32;2.20;;;;;;;22.10;41.29;99134.84;4342927;33;34465;-75
2022/06/24 04:15:14;;;;;;;3.90;2.30;;;;;;;22.09;41.56;99130.47;4328233;33;34538;-76
2022/06/24 04:17:43;;;;;;;3.78;2.17;;;;;;;22.48;41.52;99130.75;4342169;32;34052;-77
2022/06/24 04:20:12;;;;;;;6.43;2.03;;;;;;;22.20;40.45;99129.84;4347522;33;35693;-75
2022/06/24 04:22:41;;;;;;;5.82;2.20;;;;;;;22.26;42.21;99136.56;4340509;32;35251;-75
2022/06/24 04:25:10;;;;;;;6.25;2.30;;;;;;;22.53;40.99;99136.62;4334290;33;33666;-75
2022/06/24 04:27:39;;;;;;;3.22;2.17;;;;;;;22.71;40.25;99134.59;4346989;32;33816;-76
2022/06/24 04:30:11;;;;;;;8.18;2.58;;;;;;;22.94;40.78;99133.13;4350453;32;35115;-76
2022/06/24 04:32:40;;;;;;;5.68;2.58;;;;;;;22.94;41.04;99140.22;4333039;33;35286;-76
2022/06/24 04:35:08;;;;;;;5.72;2.90;;;;;;;22.93;41.76;99138.56;4344924;33;33537;-76
2022/06/24 04:37:40;;;;;;;5.50;3.20;;;;;;;23.00;40.69;99131.87;4334994;32;34042;-76
2022/06/24 04:40:11;;;;;;;4.35;3.20;;;;;;;23.13;40.46;99143.41;4337074;33;34840;-79
2022/06/24 04:42:39;;;;;;;3.47;2.30;;;;;;;22.81;40.98;99146.34;4325533;33;34157;-76
2022/06/24 04:45:08;;;;;;;3.37;2.53;;;;;;;23.12;39.58;99140.88;4342391;33;33651;-75
2022/06/24 04:47:37;;;;;;;4.57;2.80;;;;;;;23.76;37.99;99141.03;4333677;33;33836;-86
2022/06/24 04:50:08;;;;;;;5.00;2.90;;;;;;;22.90;40.26;99145.75;4334076;33;35939;-76
2022/06/24 04:52:38;;;;;;;4.40;2.90;;;;;;;23.48;39.79;99145.53;4324920;33;34090;-77
2022/06/24 04:55:07;;;;;;;6.85;3.20;;;;;;;23.49;39.14;99144.59;4347344;33;34507;-81
2022/06/24 04:57:35;;;;;;;3.83;2.30;;;;;;;23.59;42.09;99148.31;4347507;32;34019;-77
2022/06/24 05:00:04;;;;;;;4.62;2.25;;;;;;;23.28;39.08;99144.22;4337199;33;35201;-85
2022/06/24 05:02:33;;;;;;;5.85;2.85;;;;;;;23.86;39.59;99139.47;4336081;32;34531;-76
2022/06/24 05:05:03;;;;;;;5.75;2.20;;;;;;;24.20;38.71;99142.44;4343540;33;33571;-76
2022/06/24 05:07:31;;;;;;;5.80;2.08;;;;;;;24.17;38.29;99138.16;4335807;32;33830;-77
2022/06/24 05:09:59;;;;;;;7.12;2.55;;;;;;;24.50;37.39;99133.22;4352829;32;36012;-76
2022/06/24 05:12:27;;;;;;;3.92;1.95;;;;;;;24.56;36.48;99135.47;4347749;33;34502;-76
2022/06/24 05:14:56;;;;;;;6.20;2.03;;;;;;;24.33;37.94;99143.25;4346370;33;33802;-76
2022/06/24 05:17:24;;;;;;;3.35;2.42;;;;;;;24.69;37.89;99148.75;4347492;33;34100;-76
2022/06/24 05:19:53;;;;;;;6.37;3.20;;;;;;;25.31;36.28;99142.47;4339008;33;35101;-76
2022/06/24 05:22:21;;;;;;;4.57;2.60;;;;;;;24.93;36.34;99141.63;4338761;32;34736;-83
2022/06/24 05:24:49;;;;;;;6.72;2.53;;;;;;;25.03;37.08;99140.97;4347341;33;33657;-85
2022/06/24 05:27:17;;;;;;;9.95;2.60;;;;;;;24.91;36.67;99140.06;4340947;33;33793;-79
2022/06/24 05:29:45;;;;;;;5.45;2.80;;;;;;;25.33;35.47;99140.53;4356093;32;34977;-85
2022/06/24 05:32:12;;;;;;;8.25;2.37;;;;;;;25.42;36.47;99146.97;4341878;33;35243;-85
2022/06/24 05:34:40;;;;;;;4.00;2.10;;;;;;;25.77;35.58;99138.13;4335656;32;34499;-85
2022/06/24 05:37:09;;;;;;;4.57;2.20;;;;;;;25.61;36.86;99138.44;4349495;32;34739;-83
2022/06/24 05:39:36;;;;;;;5.30;2.22;;;;;;;25.78;34.56;99145.13;4333773;33;34770;-77
2022/06/24 05:42:04;;;;;;;4.72;2.47;;;;;;;25.88;35.36;99154.13;4334613;33;34510;-78
2022/06/24 05:44:33;;;;;;;4.93;2.05;;;;;;;26.02;35.97;99161.09;4363515;32;33051;-77
2022/06/24 05:47:01;;;;;;;4.45;2.20;;;;;;;25.97;33.70;99161.44;4362873;32;34021;-77
2022/06/24 05:49:29;;;;;;;5.37;2.00;;;;;;;25.62;35.13;99158.78;4334906;33;34513;-77
2022/06/24 05:51:57;;;;;;;5.12;2.15;;;;;;;26.57;35.04;99162.06;4349227;33;34536;-77
2022/06/24 05:57:12;;;;;;;7.22;2.60;;;;;;;27.37;35.23;99157.44;4363372;32;34885;-84
2022/06/24 05:59:40;;;;;;;3.05;1.65;;;;;;;27.29;34.41;99162.59;4363850;32;35752;-77
2022/06/24 06:02:08;;;;;;;3.00;2.15;;;;;;;26.76;35.01;99166.81;4350739;32;34559;-83
2022/06/24 06:04:36;;;;;;;4.80;2.25;;;;;;;26.90;33.61;99163.03;4359748;32;33312;-77
2022/06/24 06:07:04;;;;;;;5.20;1.90;;;;;;;27.36;32.24;99163.78;4363863;32;34658;-78
2022/06/24 06:09:33;;;;;;;4.28;1.80;;;;;;;28.11;31.80;99154.75;4361940;32;35316;-77
2022/06/24 06:12:01;;;;;;;2.65;1.85;;;;;;;27.42;32.68;99152.53;4363912;32;34446;-78
2022/06/24 06:14:29;;;;;;;4.93;2.08;;;;;;;27.77;31.67;99157.59;4361167;32;34626;-83
2022/06/24 06:17:02;;;;;;;6.05;2.33;;;;;;;27.87;31.42;99156.81;4364107;32;34775;-77
2022/06/24 06:19:32;;;;;;;6.53;2.20;;;;;;;27.85;31.96;99153.41;4360141;32;35026;-78
2022/06/24 06:22:03;;;;;;;5.32;2.72;;;;;;;28.48;32.09;99147.97;4363958;32;35057;-78
2022/06/24 06:24:31;;;;;;;4.10;1.98;;;;;;;27.73;33.47;99156.16;4359486;32;34362;-83
2022/06/24 06:26:59;;;;;;;3.08;2.15;;;;;;;28.42;31.35;99157.41;4363843;32;33400;-77
2022/06/24 06:29:27;;;;;;;3.58;1.95;;;;;;;28.91;32.16;99158.41;4349249;32;35847;-78
2022/06/24 06:31:56;;;;;;;4.93;2.20;;;;;;;28.39;31.70;99154.97;4364073;32;35138;-77
2022/06/24 06:34:24;;;;;;;4.00;2.03;;;;;;;28.41;31.45;99144.97;4362151;32;33677;-77
2022/06/24 06:36:52;;;;;;;7.32;2.20;;;;;;;29.61;30.71;99144.91;4349419;32;33912;-78
2022/06/24 06:39:20;;;;;;;5.75;2.05;;;;;;;28.86;32.41;99143.75;4362136;32;35231;-81
2022/06/24 06:41:48;;;;;;;4.18;2.33;;;;;;;29.56;30.54;99141.81;4363496;32;33805;-78
2022/06/24 06:44:16;;;;;;;4.00;2.30;;;;;;;29.52;30.63;99140.41;4362302;32;33550;-77
2022/06/24 06:46:45;;;;;;;4.72;2.33;;;;;;;29.87;28.72;99144.34;4356707;32;33910;-85
2022/06/24 06:49:13;;;;;;;3.92;2.30;;;;;;;30.37;29.30;99136.00;4345249;32;34929;-78
2022/06/24 06:51:40;;;;;;;3.25;1.87;;;;;;;30.38;27.81;99143.06;4362418;32;34131;-78
2022/06/24 06:54:09;;;;;;;2.62;1.90;;;;;;;30.16;28.38;99141.56;4362288;32;34460;-77
2022/06/24 06:56:37;;;;;;;2.25;1.67;;;;;;;29.87;29.67;99139.81;4362520;32;34024;-77
2022/06/24 06:59:05;;;;;;;3.12;1.87;;;;;;;29.95;28.03;99131.03;4362316;32;35112;-79
2022/06/24 07:01:33;;;;;;;4.87;1.92;;;;;;;30.95;26.47;99137.50;4363741;32;34558;-77
2022/06/24 07:04:01;;;;;;;3.47;1.80;;;;;;;30.58;27.47;99137.56;4362095;32;33828;-77
2022/06/24 07:06:29;;;;;;;3.97;1.80;;;;;;;30.98;28.35;99144.44;4363482;32;34715;-78
2022/06/24 07:08:57;;;;;;;4.62;1.90;;;;;;;30.73;28.50;99136.09;4362080;32;35053;-78
2022/06/24 07:11:25;;;;;;;3.58;1.95;;;;;;;30.51;27.81;99141.88;4363649;32;34483;-78
2022/06/24 07:13:55;;;;;;;4.18;1.87;;;;;;;31.13;27.12;99134.84;4361004;32;33718;-78
2022/06/24 07:16:23;;;;;;;3.50;1.80;;;;;;;30.67;29.79;99142.03;4363629;32;34080;-78
2022/06/24 07:18:51;;;;;;;4.75;2.72;;;;;;;30.60;27.98;99141.81;4361891;32;35994;-78
2022/06/24 07:21:19;;;;;;;7.20;2.12;;;;;;;31.04;27.30;99140.28;4363616;32;34629;-77
2022/06/24 07:23:47;;;;;;;3.33;1.73;;;;;;;30.83;26.63;99140.53;4362225;32;33755;-78
2022/06/24 07:26:15;;;;;;;4.40;1.83;;;;;;;31.77;27.68;99134.75;4363551;32;34745;-78
2022/06/24 07:28:43;;;;;;;2.25;1.65;;;;;;;31.61;25.72;99135.47;4361969;32;35046;-83
2022/06/24 07:31:18;;;;;;;7.18;1.87;;;;;;;31.30;28.84;99133.16;4348670;32;34498;-77
2022/06/24 07:33:46;;;;;;;3.17;1.85;;;;;;;31.41;27.65;99140.13;4336527;32;32794;-83
2022/06/24 07:36:15;;;;;;;2.58;1.60;;;;;;;31.49;25.05;99137.53;4350133;32;34773;-78
2022/06/24 07:38:43;;;;;;;3.55;1.60;;;;;;;32.13;25.27;99140.84;4348769;32;35038;-83
2022/06/24 07:41:13;;;;;;;5.10;1.70;;;;;;;31.20;25.45;99135.06;4350123;32;35347;-77
2022/06/24 07:43:41;;;;;;;3.97;2.17;;;;;;;31.33;26.16;99127.47;4348871;32;33729;-78
2022/06/24 07:46:11;;;;;;;7.68;3.42;;;;;;;31.75;24.56;99131.38;4360091;32;34859;-78
2022/06/24 07:48:39;;;;;;;3.95;2.30;;;;;;;31.99;24.19;99132.50;4361781;32;35933;-78
2022/06/24 07:51:11;;;;;;;5.75;2.67;;;;;;;32.18;23.25;99116.16;4363535;32;34472;-78
2022/06/24 07:53:44;;;;;;;5.35;2.05;;;;;;;31.90;25.07;99124.37;4348748;32;34550;-78
2022/06/24 07:59:05;;;;;;;5.62;2.03;;;;;;;32.51;22.57;99116.28;4353323;32;36003;-78
2022/06/24 08:01:34;;;;;;;2.47;1.90;;;;;;;32.42;23.71;99114.56;4335336;33;35278;-77
2022/06/24 08:04:07;;;;;;;2.22;1.60;;;;;;;32.45;23.43;99114.22;4344219;32;33744;-79
2022/06/24 08:06:46;;;;;;;2.95;1.77;;;;;;;32.57;22.75;99114.78;4363149;32;34774;-78
2022/06/24 08:09:14;;;;;;;4.12;1.87;;;;;;;32.77;23.43;99118.06;4348926;32;35041;-77
2022/06/24 08:11:42;;;;;;;2.42;1.52;;;;;;;32.97;22.29;99114.06;4363458;32;34630;-83
2022/06/24 08:14:10;;;;;;;4.95;2.08;;;;;;;32.78;22.35;99119.78;4348485;32;33684;-78
2022/06/24 08:16:39;;;;;;;2.95;1.80;;;;;;;31.62;24.39;99110.22;4361884;32;34736;-78
2022/06/24 08:19:14;;;;;;;2.72;1.80;;;;;;;32.09;26.67;99114.41;4349387;32;35945;-78
2022/06/24 08:21:43;;;;;;;2.75;1.70;;;;;;;32.10;22.69;99105.31;4361292;32;35240;-79
2022/06/24 08:24:11;;;;;;;5.40;1.80;;;;;;;32.91;22.82;99112.03;4361987;32;33562;-78
2022/06/24 08:26:39;;;;;;;3.83;2.10;;;;;;;32.62;23.12;99102.53;4350004;32;34002;-78
2022/06/24 08:29:09;;;;;;;2.20;1.50;;;;;;;32.26;23.49;99108.13;4361179;32;35164;-79
2022/06/24 08:31:37;;;;;;;4.55;1.95;;;;;;;32.31;22.91;99105.78;4363338;32;34637;-79
2022/06/24 08:34:05;;;;;;;3.37;2.10;;;;;;;32.16;22.90;99107.38;4359003;32;33691;-77
2022/06/24 08:36:33;;;;;;;4.00;2.17;;;;;;;32.29;23.69;99109.63;4342001;33;34752;-77
2022/06/24 08:39:03;;;;;;;2.90;2.03;;;;;;;32.57;24.40;99114.78;4340044;32;34997;-78
2022/06/24 08:41:31;;;;;;;3.90;1.73;;;;;;;32.54;23.36;99109.72;4362645;32;35129;-77
2022/06/24 08:43:59;;;;;;;2.62;1.60;;;;;;;33.40;21.93;99103.16;4347400;32;33639;-78
2022/06/24 08:46:27;;;;;;;3.53;2.08;;;;;;;32.71;24.92;99105.25;4362899;32;34062;-77
2022/06/24 08:48:58;;;;;;;4.47;1.73;;;;;;;32.83;24.21;99106.63;4348063;32;35185;-78
2022/06/24 08:51:28;;;;;;;2.47;1.80;;;;;;;32.98;23.53;99099.56;4349822;32;35117;-77
2022/06/24 08:53:57;;;;;;;3.22;1.87;;;;;;;32.94;23.09;99108.16;4361158;32;33779;-77
2022/06/24 08:56:46;;;;;;;5.62;2.10;;;;;;;33.68;21.56;99106.38;4362620;32;34672;-78
2022/06/24 08:59:13;;;;;;;2.72;1.50;;;;;;;33.98;23.26;99103.94;4361274;32;35798;-78
2022/06/24 09:01:41;;;;;;;4.25;2.75;;;;;;;33.39;21.75;99105.03;4362876;32;35097;-79
2022/06/24 09:04:10;;;;;;;3.08;1.50;;;;;;;34.01;21.51;99109.03;4361222;32;33661;-77
2022/06/24 09:06:40;;;;;;;5.37;1.80;;;;;;;34.02;21.62;99107.97;4362479;32;34701;-78
2022/06/24 09:09:08;;;;;;;3.97;1.90;;;;;;;33.54;24.19;99093.53;4358159;32;35919;-78
2022/06/24 09:11:41;;;;;;;3.97;2.00;;;;;;;33.30;22.62;99097.94;4362771;32;35398;-78
2022/06/24 09:14:09;;;;;;;4.47;2.10;;;;;;;33.84;21.62;99102.81;4347808;32;34598;-78
2022/06/24 09:16:38;;;;;;;2.72;1.60;;;;;;;32.73;24.56;99097.84;4337290;32;33918;-78
2022/06/24 09:19:14;;;;;;;;;;;;;;;33.62;21.93;99093.50;4361247;32;35135;-78
2022/06/24 09:21:43;;;;;;;1.85;1.58;;;;;;;33.38;22.34;99092.53;4362440;32;34607;-81
2022/06/24 09:24:11;;;;;;;4.75;2.03;;;;;;;33.98;22.87;99096.69;4347485;32;33713;-77
2022/06/24 09:26:41;;;;;;;2.20;1.60;;;;;;;34.18;20.82;99091.78;4348989;32;33815;-77
2022/06/24 09:29:14;;;;;;;4.45;1.73;;;;;;;34.68;22.49;99091.50;4346483;32;34723;-78
2022/06/24 09:31:43;;;;;;;3.40;1.70;;;;;;;33.80;22.07;99091.50;4362400;32;34545;-77
2022/06/24 09:34:16;;;;;;;2.92;1.77;;;;;;;33.75;21.04;99091.16;4360510;32;34360;-78
2022/06/24 09:36:47;;;;;;;5.53;1.67;;;;;;;33.35;23.22;99092.88;4347453;32;34740;-78
2022/06/24 09:39:16;;;;;;;4.90;1.87;;;;;;;34.48;20.66;99094.66;4360860;32;35853;-78
2022/06/24 09:41:54;;;;;;;2.53;1.83;;;;;;;33.63;21.50;99087.13;4362173;32;34600;-79
2022/06/24 09:44:26;;;;;;;4.05;1.80;;;;;;;33.91;20.92;99097.56;4345890;32;34562;-83
2022/06/24 09:47:03;;;;;;;5.50;1.77;;;;;;;35.01;19.48;99099.44;4349153;32;33924;-83
2022/06/24 09:49:31;;;;;;;3.58;1.73;;;;;;;34.53;20.28;99096.84;4347456;32;35157;-78
2022/06/24 09:51:59;;;;;;;2.83;1.50;;;;;;;34.79;19.88;99101.13;4347162;33;34450;-79
2022/06/24 09:54:28;;;;;;;3.30;1.92;;;;;;;34.43;22.13;99097.03;4344638;32;33741;-80
2022/06/24 09:56:56;;;;;;;2.17;1.40;;;;;;;34.17;23.54;99095.44;4336052;33;33870;-81
2022/06/24 10:02:21;;;;;;;3.33;1.65;;;;;;;34.52;20.04;99085.19;4352854;32;34404;-78
2022/06/24 10:04:51;;;;;;;3.30;1.90;;;;;;;34.31;22.85;99084.94;4348422;32;33759;-79
2022/06/24 10:07:24;;;;;;;2.00;1.60;;;;;;;34.10;23.26;99080.94;4355826;32;33812;-81
2022/06/24 10:10:05;;;;;;;2.05;1.50;;;;;;;33.87;21.10;99074.59;4352113;32;35936;-78
2022/06/24 10:12:37;;;;;;;4.18;1.70;;;;;;;34.60;23.82;99075.34;4358860;32;34484;-82
2022/06/24 10:15:06;;;;;;;5.57;1.83;;;;;;;35.04;20.66;99074.72;4348914;32;34382;-78
2022/06/24 10:17:35;;;;;;;2.67;1.58;;;;;;;35.08;22.89;99068.75;4363014;32;33922;-79
2022/06/24 10:20:04;;;;;;;4.45;1.67;;;;;;;35.65;20.03;99070.16;4361371;32;34904;-78
2022/06/24 10:22:43;;;;;;;5.40;1.80;;;;;;;34.38;21.12;99056.19;4359518;32;34954;-79
2022/06/24 10:25:16;;;;;;;5.75;2.00;;;;;;;34.22;23.31;99056.25;4361771;32;34457;-78
2022/06/24 10:27:58;;;;;;;2.78;1.70;;;;;;;35.35;21.38;99052.16;4358755;32;34084;-79
2022/06/24 10:30:45;;;;;;;5.07;1.60;;;;;;;34.44;20.99;99052.78;4362266;32;35880;-79
2022/06/24 10:33:23;;;;;;;4.00;1.60;;;;;;;34.90;19.62;99039.31;4362736;32;34617;-78
2022/06/24 10:35:57;;;;;;;2.87;1.80;;;;;;;34.89;19.51;99036.78;4362455;32;33551;-78
2022/06/24 10:38:42;;;;;;;6.70;2.03;;;;;;;34.73;20.44;99035.91;4363910;32;34739;-78
2022/06/24 10:41:11;;;;;;;2.20;1.37;;;;;;;34.71;21.38;99034.38;4333151;33;34395;-77
2022/06/24 10:43:44;;;;;;;3.67;1.58;;;;;;;34.76;21.08;99031.97;4352396;32;35030;-79
2022/06/24 10:46:12;;;;;;;6.50;1.95;;;;;;;35.27;21.91;99040.37;4333244;33;33664;-77
2022/06/24 10:48:43;;;;;;;5.35;1.83;;;;;;;33.97;20.92;99032.00;4352338;32;34033;-78
2022/06/24 10:51:15;;;;;;;2.67;1.92;;;;;;;35.12;19.14;99015.09;4363829;32;35948;-79
2022/06/24 10:54:09;;;;;;;2.75;1.75;;;;;;;34.86;18.83;99021.78;4361172;32;35194;-83
2022/06/24 10:56:41;;;;;;;5.12;1.60;;;;;;;34.35;19.96;99024.09;4357067;32;33637;-84
2022/06/24 10:59:12;;;;;;;6.10;1.50;;;;;;;34.37;20.06;99027.47;4355949;32;34012;-78
2022/06/24 11:01:42;;;;;;;5.10;1.73;;;;;;;34.90;19.04;99025.78;4361383;32;35088;-77
2022/06/24 11:04:18;;;;;;;2.92;1.60;;;;;;;34.59;20.44;99014.97;4359741;32;34431;-83
2022/06/24 11:07:13;;;;;;;3.08;1.80;;;;;;;34.17;21.29;99022.47;4332337;33;34105;-77
2022/06/24 11:09:41;;;;;;;4.00;1.83;;;;;;;34.65;23.05;99010.75;4333014;33;34049;-77
2022/06/24 11:12:29;;;;;;;4.20;1.87;;;;;;;34.64;20.65;99006.34;4333816;32;35114;-82
2022/06/24 11:14:58;;;;;;;2.75;1.80;;;;;;;34.63;21.33;99010.09;4334073;33;35380;-78
2022/06/24 11:17:27;;;;;;;3.53;1.83;;;;;;;35.21;21.92;99008.66;4349208;32;33677;-78
2022/06/24 11:19:55;;;;;;;2.08;1.40;;;;;;;35.09;21.09;98994.69;4362544;32;34686;-77
2022/06/24 11:22:28;;;;;;;2.60;1.77;;;;;;;34.76;21.69;98996.81;4361994;32;36037;-79
2022/06/24 11:24:59;;;;;;;3.30;1.80;;;;;;;34.53;19.95;98992.22;4363653;32;34441;-79
2022/06/24 11:27:36;;;;;;;3.80;1.87;;;;;;;35.28;18.13;98993.34;4362023;32;34402;-79
2022/06/24 11:30:05;;;;;;;2.50;1.50;;;;;;;34.17;20.33;98984.66;4363579;32;34856;-79
2022/06/24 11:32:57;;;;;;;2.70;1.60;;;;;;;34.51;19.40;98980.75;4349526;32;35903;-79
2022/06/24 11:35:26;;;;;;;3.42;1.55;;;;;;;34.69;20.77;98985.00;4361099;32;34646;-78
2022/06/24 11:37:58;;;;;;;2.30;1.70;;;;;;;34.21;19.73;98974.34;4362008;32;33642;-79
2022/06/24 11:40:28;;;;;;;2.67;1.50;;;;;;;34.69;19.54;98977.72;4362238;32;34727;-78
2022/06/24 11:43:02;;;;;;;3.40;2.00;;;;;;;35.00;20.47;98978.69;4362331;32;34881;-78
2022/06/24 11:45:36;;;;;;;5.85;2.10;;;;;;;34.35;19.33;98978.16;4363439;32;34360;-78
2022/06/24 11:48:06;;;;;;;3.83;1.62;;;;;;;34.53;20.21;98967.88;4360820;32;33629;-78
2022/06/24 11:50:34;;;;;;;3.50;1.75;;;;;;;34.26;23.16;98981.94;4360040;32;34740;-78
2022/06/24 11:53:04;;;;;;;2.10;1.45;;;;;;;34.69;20.07;98972.31;4361716;32;34896;-80
2022/06/24 11:55:38;;;;;;;6.50;3.17;;;;;;;35.07;21.52;98968.84;4362166;32;34765;-79
2022/06/24 11:58:08;;;;;;;2.37;1.40;;;;;;;34.78;19.82;98965.00;4361905;32;33767;-79
2022/06/24 12:00:38;;;;;;;3.50;1.73;;;;;;;34.41;24.37;98958.50;4362024;32;33288;-78
2022/06/24 12:03:10;;;;;;;2.28;1.40;;;;;;;35.33;20.48;98951.34;4361747;32;34328;-78